sensor_id;sensor_type;location;lat;lon;timestamp;P1;durP1;ratioP1;P2;durP2;ratioP2
7450;SDS011;3767;42.688;23.360;2022-08-05T00:01:53;7.63;;;6.90;;
7450;SDS011;3767;42.688;23.360;2022-08-05T00:04:20;7.43;;;6.57;;
7450;SDS011;3767;42.688;23.360;2022-08-05T00:06:47;7.40;;;6.70;;
7450;SDS011;3767;42.688;23.360;2022-08-05T00:09:13;7.63;;;6.68;;
7450;SDS011;3767;42.688;23.360;2022-08-05T00:11:39;8.20;;;6.18;;
7450;SDS011;3767;42.688;23.360;2022-08-05T00:14:06;6.82;;;6.22;;
7450;SDS011;3767;42.688;23.360;2022-08-05T00:16:34;7.10;;;6.25;;
7450;SDS011;3767;42.688;23.360;2022-08-05T00:19:00;6.78;;;6.28;;
7450;SDS011;3767;42.688;23.360;2022-08-05T00:21:27;6.72;;;6.13;;
7450;SDS011;3767;42.688;23.360;2022-08-05T00:23:53;6.93;;;6.30;;
7450;SDS011;3767;42.688;23.360;2022-08-05T00:26:20;8.82;;;6.57;;
7450;SDS011;3767;42.688;23.360;2022-08-05T00:28:46;6.65;;;5.90;;
7450;SDS011;3767;42.688;23.360;2022-08-05T00:31:13;6.55;;;5.90;;
7450;SDS011;3767;42.688;23.360;2022-08-05T00:33:40;6.18;;;5.72;;
7450;SDS011;3767;42.688;23.360;2022-08-05T00:36:07;7.00;;;6.40;;
7450;SDS011;3767;42.688;23.360;2022-08-05T00:38:33;9.35;;;6.10;;
7450;SDS011;3767;42.688;23.360;2022-08-05T00:41:00;6.82;;;6.10;;
7450;SDS011;3767;42.688;23.360;2022-08-05T00:43:29;6.45;;;5.95;;
7450;SDS011;3767;42.688;23.360;2022-08-05T00:45:56;6.25;;;5.80;;
7450;SDS011;3767;42.688;23.360;2022-08-05T00:48:22;7.78;;;6.07;;
7450;SDS011;3767;42.688;23.360;2022-08-05T00:50:50;6.25;;;5.63;;
7450;SDS011;3767;42.688;23.360;2022-08-05T00:53:18;5.97;;;5.53;;
7450;SDS011;3767;42.688;23.360;2022-08-05T00:55:45;5.78;;;5.22;;
7450;SDS011;3767;42.688;23.360;2022-08-05T00:58:12;6.72;;;5.80;;
7450;SDS011;3767;42.688;23.360;2022-08-05T01:00:39;6.45;;;5.82;;
7450;SDS011;3767;42.688;23.360;2022-08-05T01:03:06;6.07;;;5.47;;
7450;SDS011;3767;42.688;23.360;2022-08-05T01:05:32;6.20;;;5.70;;
7450;SDS011;3767;42.688;23.360;2022-08-05T01:08:00;6.05;;;5.53;;
7450;SDS011;3767;42.688;23.360;2022-08-05T01:10:28;6.55;;;5.80;;
7450;SDS011;3767;42.688;23.360;2022-08-05T01:12:57;6.45;;;5.93;;
7450;SDS011;3767;42.688;23.360;2022-08-05T01:15:27;6.18;;;5.70;;
7450;SDS011;3767;42.688;23.360;2022-08-05T01:17:56;6.68;;;6.07;;
7450;SDS011;3767;42.688;23.360;2022-08-05T01:20:29;7.15;;;6.43;;
7450;SDS011;3767;42.688;23.360;2022-08-05T01:22:59;6.40;;;5.80;;
7450;SDS011;3767;42.688;23.360;2022-08-05T01:25:36;6.57;;;6.00;;
7450;SDS011;3767;42.688;23.360;2022-08-05T01:28:19;6.85;;;6.25;;
7450;SDS011;3767;42.688;23.360;2022-08-05T01:30:50;9.73;;;6.93;;
7450;SDS011;3767;42.688;23.360;2022-08-05T01:33:17;6.85;;;6.25;;
7450;SDS011;3767;42.688;23.360;2022-08-05T01:35:45;6.75;;;6.15;;
7450;SDS011;3767;42.688;23.360;2022-08-05T01:38:13;7.72;;;5.80;;
7450;SDS011;3767;42.688;23.360;2022-08-05T01:40:40;8.10;;;6.03;;
7450;SDS011;3767;42.688;23.360;2022-08-05T01:43:07;6.55;;;6.05;;
7450;SDS011;3767;42.688;23.360;2022-08-05T01:45:36;6.85;;;6.18;;
7450;SDS011;3767;42.688;23.360;2022-08-05T01:48:04;6.88;;;6.00;;
7450;SDS011;3767;42.688;23.360;2022-08-05T01:50:33;6.35;;;5.85;;
7450;SDS011;3767;42.688;23.360;2022-08-05T01:53:02;6.25;;;5.70;;
7450;SDS011;3767;42.688;23.360;2022-08-05T01:55:29;5.97;;;5.47;;
7450;SDS011;3767;42.688;23.360;2022-08-05T01:57:57;5.40;;;5.00;;
7450;SDS011;3767;42.688;23.360;2022-08-05T02:00:24;5.55;;;5.15;;
7450;SDS011;3767;42.688;23.360;2022-08-05T02:02:53;6.22;;;5.70;;
7450;SDS011;3767;42.688;23.360;2022-08-05T02:05:21;8.30;;;5.63;;
7450;SDS011;3767;42.688;23.360;2022-08-05T02:07:48;5.88;;;5.22;;
7450;SDS011;3767;42.688;23.360;2022-08-05T02:10:15;5.53;;;5.00;;
7450;SDS011;3767;42.688;23.360;2022-08-05T02:12:42;5.70;;;5.20;;
7450;SDS011;3767;42.688;23.360;2022-08-05T02:15:11;6.13;;;5.60;;
7450;SDS011;3767;42.688;23.360;2022-08-05T02:17:40;5.38;;;4.97;;
7450;SDS011;3767;42.688;23.360;2022-08-05T02:20:10;5.40;;;5.00;;
7450;SDS011;3767;42.688;23.360;2022-08-05T02:22:39;5.32;;;5.00;;
7450;SDS011;3767;42.688;23.360;2022-08-05T02:25:07;6.10;;;5.60;;
7450;SDS011;3767;42.688;23.360;2022-08-05T02:27:37;5.07;;;4.78;;
7450;SDS011;3767;42.688;23.360;2022-08-05T02:30:06;6.40;;;5.80;;
7450;SDS011;3767;42.688;23.360;2022-08-05T02:32:34;7.95;;;5.90;;
7450;SDS011;3767;42.688;23.360;2022-08-05T02:35:02;6.20;;;5.47;;
7450;SDS011;3767;42.688;23.360;2022-08-05T02:37:31;5.53;;;5.13;;
7450;SDS011;3767;42.688;23.360;2022-08-05T02:39:59;6.95;;;5.40;;
7450;SDS011;3767;42.688;23.360;2022-08-05T02:42:26;5.53;;;4.97;;
7450;SDS011;3767;42.688;23.360;2022-08-05T02:44:53;5.65;;;5.22;;
7450;SDS011;3767;42.688;23.360;2022-08-05T02:47:20;5.78;;;5.13;;
7450;SDS011;3767;42.688;23.360;2022-08-05T02:49:47;6.65;;;5.95;;
7450;SDS011;3767;42.688;23.360;2022-08-05T02:52:15;6.13;;;5.40;;
7450;SDS011;3767;42.688;23.360;2022-08-05T02:54:44;6.05;;;5.22;;
7450;SDS011;3767;42.688;23.360;2022-08-05T02:57:12;5.70;;;5.30;;
7450;SDS011;3767;42.688;23.360;2022-08-05T02:59:39;5.63;;;5.18;;
7450;SDS011;3767;42.688;23.360;2022-08-05T03:02:07;6.60;;;6.00;;
7450;SDS011;3767;42.688;23.360;2022-08-05T03:04:34;7.13;;;6.40;;
7450;SDS011;3767;42.688;23.360;2022-08-05T03:07:01;7.10;;;6.40;;
7450;SDS011;3767;42.688;23.360;2022-08-05T03:09:28;6.38;;;5.88;;
7450;SDS011;3767;42.688;23.360;2022-08-05T03:11:56;7.27;;;6.07;;
7450;SDS011;3767;42.688;23.360;2022-08-05T03:14:23;6.30;;;5.70;;
7450;SDS011;3767;42.688;23.360;2022-08-05T03:16:49;5.75;;;5.32;;
7450;SDS011;3767;42.688;23.360;2022-08-05T03:19:16;5.82;;;5.43;;
7450;SDS011;3767;42.688;23.360;2022-08-05T03:21:42;6.20;;;5.57;;
7450;SDS011;3767;42.688;23.360;2022-08-05T03:24:09;6.40;;;5.90;;
7450;SDS011;3767;42.688;23.360;2022-08-05T03:26:35;6.10;;;5.60;;
7450;SDS011;3767;42.688;23.360;2022-08-05T03:29:03;5.72;;;5.22;;
7450;SDS011;3767;42.688;23.360;2022-08-05T03:31:30;8.65;;;5.30;;
7450;SDS011;3767;42.688;23.360;2022-08-05T03:33:57;5.95;;;5.53;;
7450;SDS011;3767;42.688;23.360;2022-08-05T03:36:24;6.10;;;5.55;;
7450;SDS011;3767;42.688;23.360;2022-08-05T03:38:50;6.82;;;6.22;;
7450;SDS011;3767;42.688;23.360;2022-08-05T03:41:17;7.43;;;6.68;;
7450;SDS011;3767;42.688;23.360;2022-08-05T03:43:43;7.95;;;7.18;;
7450;SDS011;3767;42.688;23.360;2022-08-05T03:46:11;8.55;;;7.18;;
7450;SDS011;3767;42.688;23.360;2022-08-05T03:48:38;7.65;;;7.03;;
7450;SDS011;3767;42.688;23.360;2022-08-05T03:51:11;8.07;;;7.27;;
7450;SDS011;3767;42.688;23.360;2022-08-05T03:53:39;7.40;;;6.63;;
7450;SDS011;3767;42.688;23.360;2022-08-05T03:56:09;7.60;;;6.43;;
7450;SDS011;3767;42.688;23.360;2022-08-05T03:58:36;6.93;;;6.03;;
7450;SDS011;3767;42.688;23.360;2022-08-05T04:01:04;6.25;;;5.50;;
7450;SDS011;3767;42.688;23.360;2022-08-05T04:03:33;5.90;;;5.33;;
7450;SDS011;3767;42.688;23.360;2022-08-05T04:06:02;6.00;;;5.43;;
7450;SDS011;3767;42.688;23.360;2022-08-05T04:08:28;7.83;;;5.57;;
7450;SDS011;3767;42.688;23.360;2022-08-05T04:10:55;5.70;;;5.30;;
7450;SDS011;3767;42.688;23.360;2022-08-05T04:13:22;6.97;;;5.70;;
7450;SDS011;3767;42.688;23.360;2022-08-05T04:15:49;5.70;;;5.17;;
7450;SDS011;3767;42.688;23.360;2022-08-05T04:18:15;6.38;;;4.97;;
7450;SDS011;3767;42.688;23.360;2022-08-05T04:20:43;6.07;;;5.50;;
7450;SDS011;3767;42.688;23.360;2022-08-05T04:23:10;7.30;;;5.63;;
7450;SDS011;3767;42.688;23.360;2022-08-05T04:25:37;5.90;;;5.30;;
7450;SDS011;3767;42.688;23.360;2022-08-05T04:28:03;6.10;;;5.60;;
7450;SDS011;3767;42.688;23.360;2022-08-05T04:30:29;6.47;;;5.97;;
7450;SDS011;3767;42.688;23.360;2022-08-05T04:32:56;6.63;;;6.13;;
7450;SDS011;3767;42.688;23.360;2022-08-05T04:35:22;6.72;;;5.88;;
7450;SDS011;3767;42.688;23.360;2022-08-05T04:37:50;6.70;;;6.10;;
7450;SDS011;3767;42.688;23.360;2022-08-05T04:40:17;6.15;;;5.43;;
7450;SDS011;3767;42.688;23.360;2022-08-05T04:42:43;7.75;;;6.55;;
7450;SDS011;3767;42.688;23.360;2022-08-05T04:45:09;6.65;;;5.97;;
7450;SDS011;3767;42.688;23.360;2022-08-05T04:47:36;6.72;;;6.10;;
7450;SDS011;3767;42.688;23.360;2022-08-05T04:50:02;7.60;;;6.07;;
7450;SDS011;3767;42.688;23.360;2022-08-05T04:52:29;6.65;;;6.05;;
7450;SDS011;3767;42.688;23.360;2022-08-05T04:54:57;6.85;;;6.25;;
7450;SDS011;3767;42.688;23.360;2022-08-05T04:57:23;6.72;;;6.05;;
7450;SDS011;3767;42.688;23.360;2022-08-05T04:59:50;6.20;;;5.70;;
7450;SDS011;3767;42.688;23.360;2022-08-05T05:02:17;5.88;;;5.38;;
7450;SDS011;3767;42.688;23.360;2022-08-05T05:04:44;7.35;;;5.57;;
7450;SDS011;3767;42.688;23.360;2022-08-05T05:07:10;7.07;;;6.35;;
7450;SDS011;3767;42.688;23.360;2022-08-05T05:09:37;11.18;;;6.50;;
7450;SDS011;3767;42.688;23.360;2022-08-05T05:12:05;10.50;;;7.13;;
7450;SDS011;3767;42.688;23.360;2022-08-05T05:14:32;6.45;;;5.85;;
7450;SDS011;3767;42.688;23.360;2022-08-05T05:16:58;10.02;;;7.13;;
7450;SDS011;3767;42.688;23.360;2022-08-05T05:19:25;8.30;;;7.35;;
7450;SDS011;3767;42.688;23.360;2022-08-05T05:21:51;8.75;;;7.85;;
7450;SDS011;3767;42.688;23.360;2022-08-05T05:24:18;9.95;;;7.18;;
7450;SDS011;3767;42.688;23.360;2022-08-05T05:26:45;6.72;;;6.13;;
7450;SDS011;3767;42.688;23.360;2022-08-05T05:29:13;9.52;;;8.27;;
7450;SDS011;3767;42.688;23.360;2022-08-05T05:31:40;8.38;;;7.53;;
7450;SDS011;3767;42.688;23.360;2022-08-05T05:34:06;10.73;;;8.52;;
7450;SDS011;3767;42.688;23.360;2022-08-05T05:36:33;9.40;;;8.52;;
7450;SDS011;3767;42.688;23.360;2022-08-05T05:38:59;8.05;;;7.25;;
7450;SDS011;3767;42.688;23.360;2022-08-05T05:41:25;8.07;;;6.93;;
7450;SDS011;3767;42.688;23.360;2022-08-05T05:43:52;7.45;;;6.55;;
7450;SDS011;3767;42.688;23.360;2022-08-05T05:46:20;9.02;;;8.10;;
7450;SDS011;3767;42.688;23.360;2022-08-05T05:48:46;10.73;;;8.10;;
7450;SDS011;3767;42.688;23.360;2022-08-05T05:51:17;9.18;;;8.00;;
7450;SDS011;3767;42.688;23.360;2022-08-05T05:53:43;13.43;;;8.50;;
7450;SDS011;3767;42.688;23.360;2022-08-05T05:56:09;12.43;;;8.02;;
7450;SDS011;3767;42.688;23.360;2022-08-05T05:58:36;7.85;;;7.05;;
7450;SDS011;3767;42.688;23.360;2022-08-05T06:01:02;9.52;;;7.20;;
7450;SDS011;3767;42.688;23.360;2022-08-05T06:03:30;9.35;;;8.25;;
7450;SDS011;3767;42.688;23.360;2022-08-05T06:05:57;9.18;;;7.60;;
7450;SDS011;3767;42.688;23.360;2022-08-05T06:08:23;8.30;;;7.50;;
7450;SDS011;3767;42.688;23.360;2022-08-05T06:10:50;16.42;;;10.70;;
7450;SDS011;3767;42.688;23.360;2022-08-05T06:13:16;10.73;;;8.80;;
7450;SDS011;3767;42.688;23.360;2022-08-05T06:15:43;11.52;;;8.45;;
7450;SDS011;3767;42.688;23.360;2022-08-05T06:18:09;13.48;;;8.45;;
7450;SDS011;3767;42.688;23.360;2022-08-05T06:20:37;11.00;;;8.77;;
7450;SDS011;3767;42.688;23.360;2022-08-05T06:23:03;11.82;;;9.15;;
7450;SDS011;3767;42.688;23.360;2022-08-05T06:25:30;15.38;;;8.95;;
7450;SDS011;3767;42.688;23.360;2022-08-05T06:27:56;13.68;;;9.48;;
7450;SDS011;3767;42.688;23.360;2022-08-05T06:30:23;11.90;;;8.30;;
7450;SDS011;3767;42.688;23.360;2022-08-05T06:32:51;16.83;;;9.93;;
7450;SDS011;3767;42.688;23.360;2022-08-05T06:35:17;13.95;;;10.30;;
7450;SDS011;3767;42.688;23.360;2022-08-05T06:37:45;16.23;;;9.77;;
7450;SDS011;3767;42.688;23.360;2022-08-05T06:40:12;16.73;;;9.40;;
7450;SDS011;3767;42.688;23.360;2022-08-05T06:42:38;12.27;;;8.23;;
7450;SDS011;3767;42.688;23.360;2022-08-05T06:45:05;10.18;;;7.85;;
7450;SDS011;3767;42.688;23.360;2022-08-05T06:47:32;11.05;;;8.35;;
7450;SDS011;3767;42.688;23.360;2022-08-05T06:49:58;12.68;;;9.30;;
7450;SDS011;3767;42.688;23.360;2022-08-05T06:52:25;11.52;;;8.95;;
7450;SDS011;3767;42.688;23.360;2022-08-05T06:54:53;14.55;;;8.95;;
7450;SDS011;3767;42.688;23.360;2022-08-05T06:57:19;12.85;;;8.65;;
7450;SDS011;3767;42.688;23.360;2022-08-05T06:59:46;10.02;;;8.02;;
7450;SDS011;3767;42.688;23.360;2022-08-05T07:02:12;9.57;;;7.63;;
7450;SDS011;3767;42.688;23.360;2022-08-05T07:04:39;13.80;;;8.68;;
7450;SDS011;3767;42.688;23.360;2022-08-05T07:07:05;17.15;;;8.82;;
7450;SDS011;3767;42.688;23.360;2022-08-05T07:09:31;11.25;;;8.27;;
7450;SDS011;3767;42.688;23.360;2022-08-05T07:11:59;15.02;;;9.00;;
7450;SDS011;3767;42.688;23.360;2022-08-05T07:14:26;14.43;;;7.90;;
7450;SDS011;3767;42.688;23.360;2022-08-05T07:17:09;11.45;;;8.45;;
7450;SDS011;3767;42.688;23.360;2022-08-05T07:19:36;9.90;;;7.80;;
7450;SDS011;3767;42.688;23.360;2022-08-05T07:22:03;12.13;;;8.30;;
7450;SDS011;3767;42.688;23.360;2022-08-05T07:24:29;13.25;;;8.35;;
7450;SDS011;3767;42.688;23.360;2022-08-05T07:26:56;9.13;;;7.97;;
7450;SDS011;3767;42.688;23.360;2022-08-05T07:29:23;13.70;;;8.68;;
7450;SDS011;3767;42.688;23.360;2022-08-05T07:31:50;12.73;;;8.20;;
7450;SDS011;3767;42.688;23.360;2022-08-05T07:34:16;12.68;;;8.38;;
7450;SDS011;3767;42.688;23.360;2022-08-05T07:36:43;11.68;;;7.68;;
7450;SDS011;3767;42.688;23.360;2022-08-05T07:39:10;8.95;;;8.02;;
7450;SDS011;3767;42.688;23.360;2022-08-05T07:41:36;8.52;;;7.28;;
7450;SDS011;3767;42.688;23.360;2022-08-05T07:44:03;8.05;;;7.25;;
7450;SDS011;3767;42.688;23.360;2022-08-05T07:46:31;11.68;;;7.30;;
7450;SDS011;3767;42.688;23.360;2022-08-05T07:48:59;13.85;;;7.72;;
7450;SDS011;3767;42.688;23.360;2022-08-05T07:51:25;13.32;;;8.20;;
7450;SDS011;3767;42.688;23.360;2022-08-05T07:53:52;10.50;;;7.90;;
7450;SDS011;3767;42.688;23.360;2022-08-05T07:56:18;10.95;;;7.30;;
7450;SDS011;3767;42.688;23.360;2022-08-05T07:58:45;8.15;;;7.35;;
7450;SDS011;3767;42.688;23.360;2022-08-05T08:01:11;10.07;;;8.18;;
7450;SDS011;3767;42.688;23.360;2022-08-05T08:03:39;11.63;;;7.72;;
7450;SDS011;3767;42.688;23.360;2022-08-05T08:06:06;10.32;;;7.30;;
7450;SDS011;3767;42.688;23.360;2022-08-05T08:08:32;8.20;;;7.43;;
7450;SDS011;3767;42.688;23.360;2022-08-05T08:10:59;9.93;;;7.90;;
7450;SDS011;3767;42.688;23.360;2022-08-05T08:13:25;9.80;;;8.13;;
7450;SDS011;3767;42.688;23.360;2022-08-05T08:15:52;10.57;;;6.63;;
7450;SDS011;3767;42.688;23.360;2022-08-05T08:18:18;14.27;;;7.68;;
7450;SDS011;3767;42.688;23.360;2022-08-05T08:20:46;13.50;;;7.70;;
7450;SDS011;3767;42.688;23.360;2022-08-05T08:23:13;9.35;;;7.68;;
7450;SDS011;3767;42.688;23.360;2022-08-05T08:25:41;10.32;;;6.90;;
7450;SDS011;3767;42.688;23.360;2022-08-05T08:28:07;10.30;;;7.70;;
7450;SDS011;3767;42.688;23.360;2022-08-05T08:30:34;12.77;;;8.30;;
7450;SDS011;3767;42.688;23.360;2022-08-05T08:33:00;10.05;;;7.32;;
7450;SDS011;3767;42.688;23.360;2022-08-05T08:35:32;9.25;;;7.60;;
7450;SDS011;3767;42.688;23.360;2022-08-05T08:37:59;8.20;;;7.28;;
7450;SDS011;3767;42.688;23.360;2022-08-05T08:40:26;7.85;;;7.05;;
7450;SDS011;3767;42.688;23.360;2022-08-05T08:42:52;7.90;;;7.05;;
7450;SDS011;3767;42.688;23.360;2022-08-05T08:45:20;9.77;;;7.20;;
7450;SDS011;3767;42.688;23.360;2022-08-05T08:47:47;8.52;;;7.07;;
7450;SDS011;3767;42.688;23.360;2022-08-05T08:50:15;7.53;;;6.40;;
7450;SDS011;3767;42.688;23.360;2022-08-05T08:52:45;7.95;;;5.97;;
7450;SDS011;3767;42.688;23.360;2022-08-05T08:55:14;7.53;;;5.63;;
7450;SDS011;3767;42.688;23.360;2022-08-05T08:57:40;6.82;;;6.13;;
7450;SDS011;3767;42.688;23.360;2022-08-05T09:00:07;8.93;;;5.82;;
7450;SDS011;3767;42.688;23.360;2022-08-05T09:02:34;7.13;;;6.35;;
7450;SDS011;3767;42.688;23.360;2022-08-05T09:05:01;6.90;;;6.13;;
7450;SDS011;3767;42.688;23.360;2022-08-05T09:07:28;6.05;;;5.55;;
7450;SDS011;3767;42.688;23.360;2022-08-05T09:09:55;6.22;;;5.55;;
7450;SDS011;3767;42.688;23.360;2022-08-05T09:12:23;6.13;;;5.63;;
7450;SDS011;3767;42.688;23.360;2022-08-05T09:14:49;5.80;;;5.25;;
7450;SDS011;3767;42.688;23.360;2022-08-05T09:17:16;8.07;;;4.53;;
7450;SDS011;3767;42.688;23.360;2022-08-05T09:19:44;4.75;;;4.45;;
7450;SDS011;3767;42.688;23.360;2022-08-05T09:22:10;5.22;;;4.82;;
7450;SDS011;3767;42.688;23.360;2022-08-05T09:24:37;7.10;;;5.60;;
7450;SDS011;3767;42.688;23.360;2022-08-05T09:27:06;4.65;;;4.25;;
7450;SDS011;3767;42.688;23.360;2022-08-05T09:29:39;3.90;;;3.70;;
7450;SDS011;3767;42.688;23.360;2022-08-05T09:32:07;7.18;;;4.15;;
7450;SDS011;3767;42.688;23.360;2022-08-05T09:34:47;4.95;;;3.95;;
7450;SDS011;3767;42.688;23.360;2022-08-05T09:37:17;5.00;;;4.47;;
7450;SDS011;3767;42.688;23.360;2022-08-05T09:39:43;6.50;;;4.85;;
7450;SDS011;3767;42.688;23.360;2022-08-05T09:42:11;5.13;;;4.55;;
7450;SDS011;3767;42.688;23.360;2022-08-05T09:44:41;4.80;;;4.50;;
7450;SDS011;3767;42.688;23.360;2022-08-05T09:47:10;5.82;;;4.53;;
7450;SDS011;3767;42.688;23.360;2022-08-05T09:49:44;4.80;;;4.43;;
7450;SDS011;3767;42.688;23.360;2022-08-05T09:52:20;4.68;;;4.28;;
7450;SDS011;3767;42.688;23.360;2022-08-05T09:54:57;5.18;;;4.10;;
7450;SDS011;3767;42.688;23.360;2022-08-05T09:57:33;4.38;;;4.18;;
7450;SDS011;3767;42.688;23.360;2022-08-05T10:00:05;4.55;;;4.30;;
7450;SDS011;3767;42.688;23.360;2022-08-05T10:02:33;4.40;;;4.10;;
7450;SDS011;3767;42.688;23.360;2022-08-05T10:05:03;4.95;;;4.55;;
7450;SDS011;3767;42.688;23.360;2022-08-05T10:07:44;4.60;;;4.30;;
7450;SDS011;3767;42.688;23.360;2022-08-05T10:10:11;4.90;;;4.50;;
7450;SDS011;3767;42.688;23.360;2022-08-05T10:12:44;5.60;;;4.20;;
7450;SDS011;3767;42.688;23.360;2022-08-05T10:15:16;4.70;;;4.40;;
7450;SDS011;3767;42.688;23.360;2022-08-05T10:17:44;3.92;;;3.72;;
7450;SDS011;3767;42.688;23.360;2022-08-05T10:20:10;4.57;;;4.28;;
7450;SDS011;3767;42.688;23.360;2022-08-05T10:22:38;5.25;;;4.60;;
7450;SDS011;3767;42.688;23.360;2022-08-05T10:25:05;4.70;;;4.40;;
7450;SDS011;3767;42.688;23.360;2022-08-05T10:27:31;5.15;;;4.80;;
7450;SDS011;3767;42.688;23.360;2022-08-05T10:29:59;6.30;;;5.10;;
7450;SDS011;3767;42.688;23.360;2022-08-05T10:32:26;8.73;;;5.07;;
7450;SDS011;3767;42.688;23.360;2022-08-05T10:34:53;5.47;;;5.07;;
7450;SDS011;3767;42.688;23.360;2022-08-05T10:37:22;5.88;;;4.88;;
7450;SDS011;3767;42.688;23.360;2022-08-05T10:39:49;5.30;;;4.93;;
7450;SDS011;3767;42.688;23.360;2022-08-05T10:42:19;5.30;;;4.85;;
7450;SDS011;3767;42.688;23.360;2022-08-05T10:44:47;5.03;;;4.72;;
7450;SDS011;3767;42.688;23.360;2022-08-05T10:47:14;5.00;;;4.70;;
7450;SDS011;3767;42.688;23.360;2022-08-05T10:52:37;4.82;;;4.43;;
7450;SDS011;3767;42.688;23.360;2022-08-05T10:55:05;5.18;;;4.88;;
7450;SDS011;3767;42.688;23.360;2022-08-05T10:57:31;5.03;;;4.70;;
7450;SDS011;3767;42.688;23.360;2022-08-05T11:05:33;5.63;;;5.22;;
7450;SDS011;3767;42.688;23.360;2022-08-05T11:08:02;5.28;;;4.88;;
7450;SDS011;3767;42.688;23.360;2022-08-05T11:10:30;5.88;;;5.03;;
7450;SDS011;3767;42.688;23.360;2022-08-05T11:12:57;5.50;;;5.00;;
7450;SDS011;3767;42.688;23.360;2022-08-05T11:15:24;5.28;;;4.93;;
7450;SDS011;3767;42.688;23.360;2022-08-05T11:18:04;5.25;;;4.85;;
7450;SDS011;3767;42.688;23.360;2022-08-05T11:20:41;5.30;;;4.80;;
7450;SDS011;3767;42.688;23.360;2022-08-05T11:23:28;5.18;;;4.88;;
7450;SDS011;3767;42.688;23.360;2022-08-05T11:26:02;6.25;;;5.47;;
7450;SDS011;3767;42.688;23.360;2022-08-05T11:28:45;5.63;;;5.13;;
7450;SDS011;3767;42.688;23.360;2022-08-05T11:34:00;4.90;;;4.60;;
7450;SDS011;3767;42.688;23.360;2022-08-05T11:39:12;5.38;;;4.97;;
7450;SDS011;3767;42.688;23.360;2022-08-05T11:41:39;5.18;;;4.80;;
7450;SDS011;3767;42.688;23.360;2022-08-05T11:44:06;7.13;;;5.13;;
7450;SDS011;3767;42.688;23.360;2022-08-05T11:46:35;5.10;;;4.80;;
7450;SDS011;3767;42.688;23.360;2022-08-05T11:49:03;6.97;;;4.57;;
7450;SDS011;3767;42.688;23.360;2022-08-05T11:51:30;5.32;;;4.90;;
7450;SDS011;3767;42.688;23.360;2022-08-05T11:53:56;5.13;;;4.68;;
7450;SDS011;3767;42.688;23.360;2022-08-05T11:56:26;5.25;;;4.85;;
7450;SDS011;3767;42.688;23.360;2022-08-05T11:59:07;4.80;;;4.60;;
7450;SDS011;3767;42.688;23.360;2022-08-05T12:01:37;5.40;;;5.00;;
7450;SDS011;3767;42.688;23.360;2022-08-05T12:04:16;5.35;;;4.82;;
7450;SDS011;3767;42.688;23.360;2022-08-05T12:06:43;5.22;;;4.88;;
7450;SDS011;3767;42.688;23.360;2022-08-05T12:09:09;5.40;;;5.00;;
7450;SDS011;3767;42.688;23.360;2022-08-05T12:11:37;5.20;;;4.80;;
7450;SDS011;3767;42.688;23.360;2022-08-05T12:14:08;5.35;;;4.88;;
7450;SDS011;3767;42.688;23.360;2022-08-05T12:16:35;5.10;;;4.90;;
7450;SDS011;3767;42.688;23.360;2022-08-05T12:19:03;5.50;;;4.85;;
7450;SDS011;3767;42.688;23.360;2022-08-05T12:21:30;5.00;;;4.70;;
7450;SDS011;3767;42.688;23.360;2022-08-05T12:23:58;8.98;;;5.72;;
7450;SDS011;3767;42.688;23.360;2022-08-05T12:26:29;4.93;;;4.63;;
7450;SDS011;3767;42.688;23.360;2022-08-05T12:28:56;5.10;;;4.90;;
7450;SDS011;3767;42.688;23.360;2022-08-05T12:31:23;5.40;;;5.03;;
7450;SDS011;3767;42.688;23.360;2022-08-05T12:33:49;5.32;;;4.82;;
7450;SDS011;3767;42.688;23.360;2022-08-05T12:36:17;5.93;;;5.43;;
7450;SDS011;3767;42.688;23.360;2022-08-05T12:38:43;5.80;;;5.20;;
7450;SDS011;3767;42.688;23.360;2022-08-05T12:41:10;5.03;;;4.78;;
7450;SDS011;3767;42.688;23.360;2022-08-05T12:43:47;5.00;;;4.70;;
7450;SDS011;3767;42.688;23.360;2022-08-05T12:46:20;6.03;;;5.00;;
7450;SDS011;3767;42.688;23.360;2022-08-05T12:48:54;5.50;;;5.20;;
7450;SDS011;3767;42.688;23.360;2022-08-05T12:51:21;5.55;;;5.05;;
7450;SDS011;3767;42.688;23.360;2022-08-05T12:53:47;5.35;;;4.95;;
7450;SDS011;3767;42.688;23.360;2022-08-05T12:56:15;5.88;;;5.30;;
7450;SDS011;3767;42.688;23.360;2022-08-05T12:58:42;4.90;;;4.50;;
7450;SDS011;3767;42.688;23.360;2022-08-05T13:01:08;5.38;;;4.88;;
7450;SDS011;3767;42.688;23.360;2022-08-05T13:03:37;5.18;;;4.88;;
7450;SDS011;3767;42.688;23.360;2022-08-05T13:06:05;5.10;;;4.70;;
7450;SDS011;3767;42.688;23.360;2022-08-05T13:08:32;5.05;;;4.45;;
7450;SDS011;3767;42.688;23.360;2022-08-05T13:10:59;4.70;;;4.50;;
7450;SDS011;3767;42.688;23.360;2022-08-05T13:13:26;5.45;;;5.15;;
7450;SDS011;3767;42.688;23.360;2022-08-05T13:15:52;4.22;;;4.00;;
7450;SDS011;3767;42.688;23.360;2022-08-05T13:18:19;4.70;;;4.40;;
7450;SDS011;3767;42.688;23.360;2022-08-05T13:20:47;4.88;;;4.40;;
7450;SDS011;3767;42.688;23.360;2022-08-05T13:23:14;5.05;;;4.70;;
7450;SDS011;3767;42.688;23.360;2022-08-05T13:25:40;4.60;;;4.30;;
7450;SDS011;3767;42.688;23.360;2022-08-05T13:28:07;5.00;;;4.60;;
7450;SDS011;3767;42.688;23.360;2022-08-05T13:30:33;4.90;;;4.60;;
7450;SDS011;3767;42.688;23.360;2022-08-05T13:33:00;4.78;;;4.38;;
7450;SDS011;3767;42.688;23.360;2022-08-05T13:35:26;4.47;;;4.28;;
7450;SDS011;3767;42.688;23.360;2022-08-05T13:37:54;4.38;;;4.07;;
7450;SDS011;3767;42.688;23.360;2022-08-05T13:40:21;4.55;;;4.20;;
7450;SDS011;3767;42.688;23.360;2022-08-05T13:42:47;5.82;;;4.80;;
7450;SDS011;3767;42.688;23.360;2022-08-05T13:45:14;4.40;;;4.20;;
7450;SDS011;3767;42.688;23.360;2022-08-05T13:47:40;4.65;;;4.30;;
7450;SDS011;3767;42.688;23.360;2022-08-05T13:50:07;4.93;;;4.60;;
7450;SDS011;3767;42.688;23.360;2022-08-05T13:52:33;4.53;;;4.22;;
7450;SDS011;3767;42.688;23.360;2022-08-05T13:55:02;4.80;;;4.50;;
7450;SDS011;3767;42.688;23.360;2022-08-05T13:57:28;4.72;;;4.43;;
7450;SDS011;3767;42.688;23.360;2022-08-05T13:59:55;4.97;;;4.68;;
7450;SDS011;3767;42.688;23.360;2022-08-05T14:02:21;5.70;;;4.05;;
7450;SDS011;3767;42.688;23.360;2022-08-05T14:04:48;4.65;;;4.25;;
7450;SDS011;3767;42.688;23.360;2022-08-05T14:07:34;4.75;;;4.25;;
7450;SDS011;3767;42.688;23.360;2022-08-05T14:10:04;4.50;;;4.20;;
7450;SDS011;3767;42.688;23.360;2022-08-05T14:12:31;4.47;;;4.20;;
7450;SDS011;3767;42.688;23.360;2022-08-05T14:14:57;4.03;;;3.80;;
7450;SDS011;3767;42.688;23.360;2022-08-05T14:17:24;5.25;;;4.30;;
7450;SDS011;3767;42.688;23.360;2022-08-05T14:19:51;4.10;;;3.90;;
7450;SDS011;3767;42.688;23.360;2022-08-05T14:22:17;4.25;;;4.05;;
7450;SDS011;3767;42.688;23.360;2022-08-05T14:24:44;4.80;;;4.38;;
7450;SDS011;3767;42.688;23.360;2022-08-05T14:27:11;4.57;;;4.30;;
7450;SDS011;3767;42.688;23.360;2022-08-05T14:29:38;5.93;;;5.43;;
7450;SDS011;3767;42.688;23.360;2022-08-05T14:32:05;6.25;;;5.65;;
7450;SDS011;3767;42.688;23.360;2022-08-05T14:34:31;6.38;;;5.70;;
7450;SDS011;3767;42.688;23.360;2022-08-05T14:36:58;4.95;;;4.55;;
7450;SDS011;3767;42.688;23.360;2022-08-05T14:39:24;4.88;;;4.50;;
7450;SDS011;3767;42.688;23.360;2022-08-05T14:41:51;4.75;;;4.43;;
7450;SDS011;3767;42.688;23.360;2022-08-05T14:44:19;4.53;;;4.20;;
7450;SDS011;3767;42.688;23.360;2022-08-05T14:46:45;4.30;;;4.10;;
7450;SDS011;3767;42.688;23.360;2022-08-05T14:49:12;4.05;;;3.85;;
7450;SDS011;3767;42.688;23.360;2022-08-05T14:51:38;4.18;;;3.90;;
7450;SDS011;3767;42.688;23.360;2022-08-05T14:54:05;4.10;;;3.90;;
7450;SDS011;3767;42.688;23.360;2022-08-05T14:56:32;4.20;;;4.00;;
7450;SDS011;3767;42.688;23.360;2022-08-05T14:58:59;4.60;;;4.40;;
7450;SDS011;3767;42.688;23.360;2022-08-05T15:01:26;3.92;;;3.72;;
7450;SDS011;3767;42.688;23.360;2022-08-05T15:03:53;4.47;;;4.13;;
7450;SDS011;3767;42.688;23.360;2022-08-05T15:06:19;4.80;;;4.40;;
7450;SDS011;3767;42.688;23.360;2022-08-05T15:08:46;4.78;;;4.38;;
7450;SDS011;3767;42.688;23.360;2022-08-05T15:11:12;5.00;;;4.15;;
7450;SDS011;3767;42.688;23.360;2022-08-05T15:13:39;4.55;;;4.32;;
7450;SDS011;3767;42.688;23.360;2022-08-05T15:16:05;4.20;;;3.80;;
7450;SDS011;3767;42.688;23.360;2022-08-05T15:18:33;4.30;;;4.10;;